Time;durP1;ratioP1;P1;durP2;ratioP2;P2;SDS_P1;SDS_P2;PMS_P1;PMS_P2;Temp;Humidity;BMP_temperature;BMP_pressure;BME280_temperature;BME280_humidity;BME280_pressure;Samples;Min_cycle;Max_cycle;Signal;HPM_P1;HPM_P2
2024/04/11 00:02:24;;;;;;;;;;;19.10;68.10;;;;;;5422868;26;1863;-70
2024/04/11 00:04:50;;;;;;;;;;;19.10;68.10;;;;;;5395807;26;1618;-70
2024/04/11 00:07:15;;;;;;;;;;;19.10;68.10;;;;;;5397879;26;2033;-70
2024/04/11 00:09:41;;;;;;;;;;;19.10;68.10;;;;;;5392072;26;1800;-69
2024/04/11 00:12:06;;;;;;;;;;;19.10;68.10;;;;;;5395034;26;2697;-71
2024/04/11 00:14:32;;;;;;;;;;;19.10;68.10;;;;;;5398339;26;1388;-70
2024/04/11 00:16:58;;;;;;;;;;;19.10;68.10;;;;;;5391859;26;1384;-69
2024/04/11 00:19:23;;;;;;;;;;;19.10;68.10;;;;;;5389935;26;1825;-70
2024/04/11 00:21:49;;;;;;;;;;;19.10;68.10;;;;;;5388250;26;1528;-70
2024/04/11 00:24:15;;;;;;;;;;;19.10;68.10;;;;;;5391279;26;1485;-69
2024/04/11 00:26:41;;;;;;;;;;;19.10;68.10;;;;;;5391796;26;1830;-69
2024/04/11 00:29:12;;;;;;;;;;;19.10;68.10;;;;;;5390209;26;2217;-70
2024/04/11 00:31:38;;;;;;;;;;;19.10;68.10;;;;;;5394155;26;1563;-70
2024/04/11 00:34:16;;;;;;;;;;;19.10;68.10;;;;;;5399668;26;1762;-70
2024/04/11 00:36:42;;;;;;;;;;;19.10;68.10;;;;;;5395761;26;1968;-69
2024/04/11 00:39:08;;;;;;;;;;;19.10;68.10;;;;;;5399601;26;1830;-70
2024/04/11 00:41:33;;;;;;;;;;;19.10;68.20;;;;;;5393654;26;1346;-70
2024/04/11 00:43:59;;;;;;;;;;;19.10;68.20;;;;;;5391665;26;1635;-70
2024/04/11 00:46:27;;;;;;;;;;;19.10;68.20;;;;;;5391694;26;1968;-69
2024/04/11 00:48:52;;;;;;;;;;;19.10;68.20;;;;;;5394177;26;1924;-69
2024/04/11 00:51:18;;;;;;;;;;;19.00;68.10;;;;;;5365142;26;1882;-70
2024/04/11 00:53:43;;;;;;;;;;;19.00;68.10;;;;;;5394493;26;1890;-70
2024/04/11 00:56:10;;;;;;;;;;;19.10;68.20;;;;;;5402187;26;1859;-72
2024/04/11 00:58:35;;;;;;;;;;;19.00;68.10;;;;;;5399442;26;1822;-72
2024/04/11 01:01:01;;;;;;;;;;;19.10;68.20;;;;;;5399166;26;1442;-70
2024/04/11 01:03:27;;;;;;;;;;;19.00;68.10;;;;;;5394525;26;1477;-71
2024/04/11 01:05:52;;;;;;;;;;;19.10;68.20;;;;;;5401353;26;1581;-70
2024/04/11 01:08:20;;;;;;;;;;;19.00;68.10;;;;;;5399808;26;1476;-71
2024/04/11 01:10:46;;;;;;;;;;;19.00;68.10;;;;;;5393150;26;1563;-71
2024/04/11 01:13:12;;;;;;;;;;;19.00;68.10;;;;;;5395524;26;1363;-71
2024/04/11 01:15:37;;;;;;;;;;;19.00;68.10;;;;;;5397296;26;1351;-71
2024/04/11 01:18:03;;;;;;;;;;;19.00;68.10;;;;;;5395345;26;1830;-71
2024/04/11 01:20:29;;;;;;;;;;;19.00;68.10;;;;;;5396321;26;1300;-70
2024/04/11 01:22:54;;;;;;;;;;;19.00;68.10;;;;;;5396030;26;1436;-70
2024/04/11 01:25:20;;;;;;;;;;;19.00;68.10;;;;;;5387760;26;1463;-72
2024/04/11 01:27:45;;;;;;;;;;;19.00;68.10;;;;;;5400874;26;1975;-72
2024/04/11 01:30:11;;;;;;;;;;;19.00;68.10;;;;;;5397131;26;1910;-72
2024/04/11 01:32:37;;;;;;;;;;;19.00;68.10;;;;;;5398561;26;2010;-70
2024/04/11 01:35:03;;;;;;;;;;;19.00;68.10;;;;;;5398133;26;1806;-71
2024/04/11 01:37:29;;;;;;;;;;;19.00;68.10;;;;;;5393186;26;1903;-71
2024/04/11 01:39:55;;;;;;;;;;;19.00;68.10;;;;;;5401012;26;1992;-71
2024/04/11 01:42:21;;;;;;;;;;;19.00;68.10;;;;;;5386394;26;1963;-70
2024/04/11 01:44:46;;;;;;;;;;;19.00;68.10;;;;;;5400297;26;1896;-69
2024/04/11 01:47:15;;;;;;;;;;;19.00;68.10;;;;;;5418758;26;1871;-70
2024/04/11 01:49:41;;;;;;;;;;;19.00;68.10;;;;;;5396408;26;1900;-71
2024/04/11 01:52:09;;;;;;;;;;;19.00;68.10;;;;;;5392032;26;1906;-71
2024/04/11 01:54:36;;;;;;;;;;;19.00;68.10;;;;;;5398377;26;1792;-71
2024/04/11 01:57:01;;;;;;;;;;;19.00;68.10;;;;;;5390857;26;1675;-70
2024/04/11 01:59:27;;;;;;;;;;;19.00;68.10;;;;;;5393794;26;1830;-70
2024/04/11 02:01:53;;;;;;;;;;;19.00;68.10;;;;;;5395019;26;1880;-70
2024/04/11 02:04:18;;;;;;;;;;;19.00;68.20;;;;;;5392591;26;1462;-70
2024/04/11 02:06:44;;;;;;;;;;;19.00;68.10;;;;;;5394499;26;1925;-70
2024/04/11 02:09:09;;;;;;;;;;;19.00;68.10;;;;;;5397415;26;1873;-71
2024/04/11 02:11:47;;;;;;;;;;;19.00;68.10;;;;;;5398483;26;1845;-73
2024/04/11 02:14:13;;;;;;;;;;;19.00;68.10;;;;;;5404411;26;1831;-71
2024/04/11 02:16:38;;;;;;;;;;;19.00;68.10;;;;;;5400200;26;1920;-70
2024/04/11 02:19:06;;;;;;;;;;;19.00;68.10;;;;;;5393097;26;2074;-70
2024/04/11 02:21:35;;;;;;;;;;;19.00;68.10;;;;;;5397978;26;1989;-70
2024/04/11 02:24:01;;;;;;;;;;;19.00;68.10;;;;;;5393926;26;1909;-70
2024/04/11 02:26:27;;;;;;;;;;;19.00;68.10;;;;;;5364589;26;1948;-70
2024/04/11 02:28:52;;;;;;;;;;;19.00;68.10;;;;;;5396755;26;1984;-71
2024/04/11 02:31:18;;;;;;;;;;;19.10;68.20;;;;;;5394208;26;1440;-74
2024/04/11 02:33:43;;;;;;;;;;;19.00;68.10;;;;;;5396369;26;1787;-71
2024/04/11 02:36:09;;;;;;;;;;;19.00;68.10;;;;;;5395793;26;1756;-72
2024/04/11 02:38:34;;;;;;;;;;;19.00;68.10;;;;;;5393851;26;1834;-70
2024/04/11 02:41:00;;;;;;;;;;;19.00;68.10;;;;;;5399420;26;1639;-71
2024/04/11 02:43:25;;;;;;;;;;;19.00;68.10;;;;;;5394878;26;1953;-70
2024/04/11 02:45:53;;;;;;;;;;;19.00;68.10;;;;;;5392904;26;1951;-70
2024/04/11 02:48:18;;;;;;;;;;;19.00;68.10;;;;;;5398375;26;1941;-70
2024/04/11 02:50:44;;;;;;;;;;;19.00;68.10;;;;;;5401959;26;1908;-70
2024/04/11 02:53:09;;;;;;;;;;;19.00;68.10;;;;;;5397405;26;1744;-70
2024/04/11 02:55:40;;;;;;;;;;;19.00;68.10;;;;;;5391842;26;1666;-70
2024/04/11 02:58:06;;;;;;;;;;;19.00;68.10;;;;;;5392793;26;1879;-69
2024/04/11 03:00:31;;;;;;;;;;;19.00;68.10;;;;;;5389511;26;1549;-72
2024/04/11 03:02:59;;;;;;;;;;;19.00;68.10;;;;;;5395864;26;1821;-71
2024/04/11 03:05:25;;;;;;;;;;;19.00;68.10;;;;;;5396917;26;1773;-71
2024/04/11 03:07:51;;;;;;;;;;;19.00;68.10;;;;;;5399359;26;1887;-70
2024/04/11 03:10:16;;;;;;;;;;;19.00;68.10;;;;;;5395916;26;1806;-71
2024/04/11 03:12:43;;;;;;;;;;;19.00;68.10;;;;;;5393522;26;2108;-70
2024/04/11 03:15:09;;;;;;;;;;;19.00;68.10;;;;;;5397356;26;1907;-70
2024/04/11 03:17:35;;;;;;;;;;;19.00;68.10;;;;;;5394289;26;1862;-70
2024/04/11 03:20:01;;;;;;;;;;;19.00;68.10;;;;;;5394783;26;1976;-70
2024/04/11 03:22:26;;;;;;;;;;;19.00;68.10;;;;;;5397036;26;1488;-70
2024/04/11 03:24:52;;;;;;;;;;;19.00;68.10;;;;;;5391410;26;1876;-69
2024/04/11 03:27:17;;;;;;;;;;;19.00;68.10;;;;;;5392382;26;1935;-70
2024/04/11 03:29:45;;;;;;;;;;;19.00;68.10;;;;;;5394710;26;1962;-70
2024/04/11 03:32:11;;;;;;;;;;;19.00;68.10;;;;;;5399817;26;1754;-70
2024/04/11 03:34:37;;;;;;;;;;;19.00;68.10;;;;;;5391128;26;1840;-69
2024/04/11 03:37:05;;;;;;;;;;;19.00;68.10;;;;;;5392124;26;1894;-71
2024/04/11 03:39:30;;;;;;;;;;;19.00;68.10;;;;;;5419638;26;1832;-70
2024/04/11 03:41:56;;;;;;;;;;;19.00;68.10;;;;;;5391705;26;1460;-70
2024/04/11 03:44:21;;;;;;;;;;;19.00;68.10;;;;;;5400657;26;1886;-69
2024/04/11 03:46:47;;;;;;;;;;;19.00;68.10;;;;;;5396237;26;1504;-69
2024/04/11 03:49:13;;;;;;;;;;;19.00;68.10;;;;;;5400236;26;1727;-69
2024/04/11 03:51:41;;;;;;;;;;;19.00;68.10;;;;;;5393914;26;1884;-69
2024/04/11 03:54:07;;;;;;;;;;;19.00;68.10;;;;;;5394969;26;1855;-69
2024/04/11 03:56:33;;;;;;;;;;;19.00;68.10;;;;;;5398621;26;1818;-69
2024/04/11 03:58:58;;;;;;;;;;;19.00;68.10;;;;;;5387692;26;1944;-69
2024/04/11 04:01:26;;;;;;;;;;;19.00;68.10;;;;;;5391295;26;1866;-69
2024/04/11 04:03:51;;;;;;;;;;;19.00;68.10;;;;;;5389614;26;2017;-70
2024/04/11 04:06:17;;;;;;;;;;;19.00;68.20;;;;;;5396475;26;1970;-69
2024/04/11 04:08:46;;;;;;;;;;;19.00;68.10;;;;;;5399307;26;2039;-70
2024/04/11 04:11:11;;;;;;;;;;;19.00;68.10;;;;;;5393713;26;1991;-69
2024/04/11 04:13:37;;;;;;;;;;;19.00;68.10;;;;;;5384871;26;1752;-69
2024/04/11 04:16:10;;;;;;;;;;;19.00;68.10;;;;;;5394153;26;2025;-69
2024/04/11 04:18:36;;;;;;;;;;;19.00;68.10;;;;;;5387735;26;1861;-70
2024/04/11 04:21:02;;;;;;;;;;;19.00;68.10;;;;;;5392048;26;1588;-70
2024/04/11 04:23:27;;;;;;;;;;;19.00;68.10;;;;;;5391876;26;1446;-68
2024/04/11 04:25:54;;;;;;;;;;;19.00;68.10;;;;;;5396451;26;1430;-68
2024/04/11 04:28:19;;;;;;;;;;;19.00;68.20;;;;;;5391402;26;1453;-68
2024/04/11 04:30:44;;;;;;;;;;;19.00;68.10;;;;;;5395451;26;1513;-69
2024/04/11 04:33:11;;;;;;;;;;;19.00;68.10;;;;;;5393127;26;1673;-70
2024/04/11 04:35:36;;;;;;;;;;;19.00;68.20;;;;;;5393865;26;1480;-69
2024/04/11 04:38:02;;;;;;;;;;;19.00;68.20;;;;;;5397466;26;1818;-69
2024/04/11 04:40:27;;;;;;;;;;;19.00;68.10;;;;;;5393999;26;1874;-67
2024/04/11 04:42:53;;;;;;;;;;;19.00;68.10;;;;;;5395598;26;1461;-68
2024/04/11 04:45:19;;;;;;;;;;;19.00;68.10;;;;;;5395569;26;1861;-67
2024/04/11 04:47:45;;;;;;;;;;;19.00;68.10;;;;;;5393616;26;1423;-69
2024/04/11 04:50:12;;;;;;;;;;;19.00;68.10;;;;;;5396509;26;1485;-69
2024/04/11 04:52:38;;;;;;;;;;;19.00;68.10;;;;;;5399054;26;1866;-70
2024/04/11 04:55:04;;;;;;;;;;;19.00;68.10;;;;;;5399358;26;1998;-68
2024/04/11 04:57:31;;;;;;;;;;;19.00;68.10;;;;;;5391866;26;2063;-67
2024/04/11 04:59:57;;;;;;;;;;;19.00;68.20;;;;;;5401234;26;1822;-68
2024/04/11 05:02:26;;;;;;;;;;;19.00;68.10;;;;;;5396765;26;1874;-68
2024/04/11 05:04:51;;;;;;;;;;;19.00;68.10;;;;;;5401127;26;1875;-67
2024/04/11 05:07:17;;;;;;;;;;;19.00;68.10;;;;;;5397872;26;1551;-68
2024/04/11 05:09:46;;;;;;;;;;;19.00;68.10;;;;;;5400070;26;1368;-69
2024/04/11 05:12:11;;;;;;;;;;;19.00;68.10;;;;;;5394331;26;1650;-68
2024/04/11 05:14:40;;;;;;;;;;;19.00;68.20;;;;;;5401034;26;1490;-68
2024/04/11 05:17:15;;;;;;;;;;;19.00;68.20;;;;;;5392223;26;1865;-67
2024/04/11 05:19:41;;;;;;;;;;;19.00;68.20;;;;;;5397224;26;1907;-68
2024/04/11 05:22:08;;;;;;;;;;;19.00;68.20;;;;;;5396848;26;1906;-70
2024/04/11 05:24:35;;;;;;;;;;;19.00;68.10;;;;;;5401339;26;1843;-69
2024/04/11 05:27:01;;;;;;;;;;;19.00;68.10;;;;;;5395185;26;1911;-69
2024/04/11 05:29:26;;;;;;;;;;;19.00;68.10;;;;;;5391625;26;1710;-69
2024/04/11 05:31:54;;;;;;;;;;;19.00;68.10;;;;;;5397101;26;1483;-69
2024/04/11 05:34:21;;;;;;;;;;;19.00;68.10;;;;;;5390774;26;2056;-69
2024/04/11 05:36:47;;;;;;;;;;;19.00;68.20;;;;;;5398859;26;1904;-69
2024/04/11 05:39:14;;;;;;;;;;;19.00;68.20;;;;;;5399212;26;1849;-68
2024/04/11 05:41:43;;;;;;;;;;;19.00;68.30;;;;;;5397604;26;1659;-68
2024/04/11 05:44:09;;;;;;;;;;;19.00;68.10;;;;;;5391726;26;1751;-68
2024/04/11 05:46:35;;;;;;;;;;;19.00;68.10;;;;;;5396359;26;1829;-68
2024/04/11 05:49:00;;;;;;;;;;;19.00;68.10;;;;;;5392712;26;1744;-70
2024/04/11 05:51:25;;;;;;;;;;;19.00;68.20;;;;;;5395545;26;1746;-69
2024/04/11 05:53:51;;;;;;;;;;;19.00;68.10;;;;;;5392406;26;1925;-69
2024/04/11 05:56:17;;;;;;;;;;;19.00;68.10;;;;;;5389160;26;1801;-69
2024/04/11 05:58:43;;;;;;;;;;;19.00;68.20;;;;;;5393440;26;1918;-69
2024/04/11 06:01:09;;;;;;;;;;;19.00;68.10;;;;;;5394544;26;1863;-70
2024/04/11 06:03:36;;;;;;;;;;;19.00;68.10;;;;;;5400747;26;1723;-70
2024/04/11 06:06:03;;;;;;;;;;;19.00;68.10;;;;;;5399782;26;1982;-70
2024/04/11 06:08:29;;;;;;;;;;;19.00;68.20;;;;;;5405730;26;1743;-69
2024/04/11 06:10:56;;;;;;;;;;;19.00;68.10;;;;;;5403672;26;1737;-70
2024/04/11 06:13:21;;;;;;;;;;;19.00;68.10;;;;;;5403769;26;2423;-68
2024/04/11 06:15:50;;;;;;;;;;;19.00;68.10;;;;;;5396164;26;2483;-68
2024/04/11 06:18:16;;;;;;;;;;;19.00;68.10;;;;;;5390280;26;1877;-69
2024/04/11 06:20:43;;;;;;;;;;;19.00;68.10;;;;;;5393710;26;1882;-69
2024/04/11 06:23:15;;;;;;;;;;;19.00;68.10;;;;;;5393743;26;1800;-67
2024/04/11 06:25:41;;;;;;;;;;;19.00;68.20;;;;;;5394436;26;1671;-67
2024/04/11 06:28:07;;;;;;;;;;;19.00;68.10;;;;;;5390563;26;1890;-68
2024/04/11 06:30:38;;;;;;;;;;;19.00;68.10;;;;;;5394357;26;1826;-68
2024/04/11 06:33:08;;;;;;;;;;;19.00;68.10;;;;;;5394854;26;1979;-68
2024/04/11 06:35:36;;;;;;;;;;;19.00;68.20;;;;;;5396444;26;1736;-71
2024/04/11 06:38:03;;;;;;;;;;;19.00;68.90;;;;;;5396295;26;1938;-73
2024/04/11 06:40:30;;;;;;;;;;;19.00;68.10;;;;;;5390592;26;1866;-70
2024/04/11 06:42:59;;;;;;;;;;;19.00;68.10;;;;;;5391776;26;1811;-70
2024/04/11 06:45:24;;;;;;;;;;;19.00;68.10;;;;;;5394154;26;1755;-72
2024/04/11 06:47:50;;;;;;;;;;;19.00;68.10;;;;;;5406880;26;1806;-72
2024/04/11 06:50:15;;;;;;;;;;;19.00;68.10;;;;;;5397886;26;1913;-72
2024/04/11 06:52:42;;;;;;;;;;;19.00;68.10;;;;;;5399084;26;1919;-72
2024/04/11 06:55:08;;;;;;;;;;;19.00;68.10;;;;;;5399000;26;1775;-72
2024/04/11 06:57:37;;;;;;;;;;;19.00;68.10;;;;;;5394373;26;1314;-73
2024/04/11 07:00:03;;;;;;;;;;;19.00;68.10;;;;;;5397390;26;2530;-73
2024/04/11 07:02:30;;;;;;;;;;;19.00;68.10;;;;;;5403898;26;2538;-73
2024/04/11 07:04:56;;;;;;;;;;;19.00;68.10;;;;;;5399682;26;2579;-73
2024/04/11 07:07:27;;;;;;;;;;;19.00;68.10;;;;;;5398680;26;1567;-73
2024/04/11 07:09:55;;;;;;;;;;;19.00;68.10;;;;;;5392456;26;1673;-73
2024/04/11 07:12:28;;;;;;;;;;;19.00;68.10;;;;;;5393219;26;1841;-72
2024/04/11 07:14:54;;;;;;;;;;;19.00;68.10;;;;;;5410567;26;1479;-71
2024/04/11 07:17:23;;;;;;;;;;;19.00;68.10;;;;;;5400289;26;1366;-71
2024/04/11 07:19:49;;;;;;;;;;;19.00;68.10;;;;;;5397658;26;1833;-73
2024/04/11 07:22:18;;;;;;;;;;;19.00;68.90;;;;;;5397154;26;1523;-72
2024/04/11 07:24:43;;;;;;;;;;;19.00;68.10;;;;;;5392235;26;1120;-72
2024/04/11 07:27:17;;;;;;;;;;;19.00;68.10;;;;;;5398368;26;1734;-72
2024/04/11 07:29:44;;;;;;;;;;;19.00;68.10;;;;;;5404338;26;1029;-71
2024/04/11 07:32:10;;;;;;;;;;;19.00;68.10;;;;;;5386234;26;1967;-71
2024/04/11 07:34:36;;;;;;;;;;;19.00;68.10;;;;;;5401569;26;1599;-71
2024/04/11 07:37:01;;;;;;;;;;;19.00;68.10;;;;;;5405580;26;1961;-71
2024/04/11 07:39:27;;;;;;;;;;;19.00;68.10;;;;;;5363114;26;1852;-72
2024/04/11 07:42:18;;;;;;;;;;;19.00;68.10;;;;;;5394386;26;1675;-72
2024/04/11 07:44:44;;;;;;;;;;;19.00;68.10;;;;;;5421690;26;1475;-71
2024/04/11 07:47:10;;;;;;;;;;;19.00;68.10;;;;;;5399257;26;1885;-72
2024/04/11 07:49:37;;;;;;;;;;;19.00;68.10;;;;;;5403847;26;1400;-71
2024/04/11 07:52:02;;;;;;;;;;;19.00;68.20;;;;;;5368968;26;1475;-73
2024/04/11 07:54:31;;;;;;;;;;;19.00;68.20;;;;;;5408053;26;1493;-73
2024/04/11 07:56:56;;;;;;;;;;;19.00;68.10;;;;;;5410576;26;1918;-72
2024/04/11 07:59:22;;;;;;;;;;;19.00;68.10;;;;;;5401981;26;1829;-72
2024/04/11 08:01:47;;;;;;;;;;;19.00;68.90;;;;;;5409700;26;1670;-72
2024/04/11 08:04:13;;;;;;;;;;;19.00;68.20;;;;;;5396024;26;1845;-72
2024/04/11 08:06:39;;;;;;;;;;;19.00;68.20;;;;;;5388664;26;1598;-73
2024/04/11 08:09:06;;;;;;;;;;;19.00;68.10;;;;;;5394187;26;1747;-71
2024/04/11 08:11:32;;;;;;;;;;;19.00;68.10;;;;;;5398269;26;1444;-72
2024/04/11 08:13:57;;;;;;;;;;;19.00;68.10;;;;;;5391719;26;1866;-71
2024/04/11 08:16:23;;;;;;;;;;;19.00;68.20;;;;;;5369431;26;1380;-72
2024/04/11 08:18:49;;;;;;;;;;;19.00;68.10;;;;;;5394385;26;1982;-71
2024/04/11 08:21:16;;;;;;;;;;;19.00;68.10;;;;;;5401298;26;2059;-72
2024/04/11 08:23:45;;;;;;;;;;;19.00;68.10;;;;;;5404755;26;1768;-72
2024/04/11 08:26:12;;;;;;;;;;;19.00;68.10;;;;;;5403373;26;1622;-71
2024/04/11 08:28:38;;;;;;;;;;;19.00;68.90;;;;;;5408276;26;1583;-72
2024/04/11 08:31:07;;;;;;;;;;;19.00;68.20;;;;;;5394802;26;1908;-73
2024/04/11 08:33:36;;;;;;;;;;;19.00;68.10;;;;;;5390689;26;1773;-72
2024/04/11 08:36:03;;;;;;;;;;;19.00;68.10;;;;;;5396134;26;1833;-72
2024/04/11 08:38:35;;;;;;;;;;;19.00;68.10;;;;;;5389134;26;1878;-72
2024/04/11 08:41:10;;;;;;;;;;;19.00;68.10;;;;;;5399608;26;2601;-72
2024/04/11 08:43:36;;;;;;;;;;;19.00;68.10;;;;;;5397356;26;1736;-72
2024/04/11 08:46:06;;;;;;;;;;;19.00;68.10;;;;;;5369344;26;1757;-73
2024/04/11 08:48:34;;;;;;;;;;;19.00;68.10;;;;;;5390971;26;1597;-72
2024/04/11 08:51:05;;;;;;;;;;;19.00;68.10;;;;;;5402139;26;1465;-71
2024/04/11 08:53:32;;;;;;;;;;;19.00;68.20;;;;;;5365845;26;1521;-71
2024/04/11 08:55:57;;;;;;;;;;;19.00;68.10;;;;;;5400490;26;1865;-71
2024/04/11 08:58:23;;;;;;;;;;;19.00;68.20;;;;;;5396164;26;1918;-72
2024/04/11 09:00:49;;;;;;;;;;;19.00;68.10;;;;;;5392871;26;1258;-73
2024/04/11 09:03:15;;;;;;;;;;;19.00;68.10;;;;;;5401008;26;2063;-72
2024/04/11 09:05:42;;;;;;;;;;;19.00;68.10;;;;;;5392412;26;2063;-72
2024/04/11 09:08:10;;;;;;;;;;;19.00;68.10;;;;;;5391124;26;2087;-72
2024/04/11 09:10:39;;;;;;;;;;;19.00;68.10;;;;;;5393955;26;1891;-73
2024/04/11 09:13:04;;;;;;;;;;;19.00;68.10;;;;;;5392839;26;1895;-72
2024/04/11 09:15:32;;;;;;;;;;;19.00;68.10;;;;;;5382638;26;1830;-72
2024/04/11 09:17:57;;;;;;;;;;;19.00;68.10;;;;;;5396761;26;1590;-72
2024/04/11 09:20:24;;;;;;;;;;;19.00;68.10;;;;;;5395122;26;1856;-72
2024/04/11 09:22:51;;;;;;;;;;;19.00;68.10;;;;;;5391140;26;1350;-72
2024/04/11 09:25:22;;;;;;;;;;;19.00;68.10;;;;;;5403110;26;2169;-74
2024/04/11 09:27:54;;;;;;;;;;;19.00;68.10;;;;;;5398952;26;1929;-72
2024/04/11 09:30:20;;;;;;;;;;;19.00;68.10;;;;;;5392998;26;1310;-72
2024/04/11 09:32:48;;;;;;;;;;;19.00;68.10;;;;;;5401008;26;1438;-72
2024/04/11 09:35:17;;;;;;;;;;;19.00;68.10;;;;;;5389214;26;1858;-71
2024/04/11 09:37:43;;;;;;;;;;;19.00;68.10;;;;;;5403408;26;1842;-72
2024/04/11 09:40:19;;;;;;;;;;;19.00;68.10;;;;;;5403505;26;1890;-72
2024/04/11 09:42:46;;;;;;;;;;;19.00;68.10;;;;;;5397295;26;1560;-72
2024/04/11 09:45:18;;;;;;;;;;;19.00;68.10;;;;;;5390920;26;1516;-72
2024/04/11 09:47:47;;;;;;;;;;;19.00;68.10;;;;;;5397695;26;1922;-72
2024/04/11 09:50:14;;;;;;;;;;;19.00;68.90;;;;;;5396658;26;1775;-71
2024/04/11 09:52:41;;;;;;;;;;;19.00;68.10;;;;;;5377702;26;1361;-72
2024/04/11 09:55:10;;;;;;;;;;;19.00;68.10;;;;;;5398174;26;1778;-72
2024/04/11 09:57:41;;;;;;;;;;;19.00;68.10;;;;;;5394061;26;1885;-72
2024/04/11 10:00:07;;;;;;;;;;;19.00;68.10;;;;;;5400465;26;1825;-72
2024/04/11 10:02:34;;;;;;;;;;;19.00;68.10;;;;;;5394558;26;1819;-72
2024/04/11 10:05:04;;;;;;;;;;;19.00;68.10;;;;;;5391167;26;1790;-72
2024/04/11 10:07:33;;;;;;;;;;;19.00;68.10;;;;;;5398314;26;2033;-72
2024/04/11 10:10:06;;;;;;;;;;;19.00;68.10;;;;;;5398422;26;1981;-72
2024/04/11 10:12:38;;;;;;;;;;;19.00;68.40;;;;;;5396499;26;1606;-72
2024/04/11 10:15:12;;;;;;;;;;;19.00;68.10;;;;;;5400851;26;1425;-72
2024/04/11 10:17:43;;;;;;;;;;;19.00;68.10;;;;;;5394391;26;1393;-72
2024/04/11 10:20:15;;;;;;;;;;;19.00;68.10;;;;;;5393016;26;1841;-72
2024/04/11 10:22:44;;;;;;;;;;;19.00;68.20;;;;;;5389413;26;1887;-72
2024/04/11 10:25:17;;;;;;;;;;;19.00;68.10;;;;;;5400341;26;1446;-72
2024/04/11 10:27:47;;;;;;;;;;;19.00;68.10;;;;;;5366764;26;1538;-72
2024/04/11 10:30:17;;;;;;;;;;;19.00;68.10;;;;;;5411408;26;1450;-72
2024/04/11 10:32:46;;;;;;;;;;;19.00;68.10;;;;;;5380240;26;1600;-72
2024/04/11 10:35:14;;;;;;;;;;;19.00;68.10;;;;;;5397694;26;1767;-72
2024/04/11 10:37:44;;;;;;;;;;;19.00;68.10;;;;;;5393314;26;1822;-72
2024/04/11 10:40:10;;;;;;;;;;;19.00;68.10;;;;;;5393223;26;1837;-72
2024/04/11 10:42:39;;;;;;;;;;;19.00;68.10;;;;;;5396727;26;1478;-72
2024/04/11 10:45:10;;;;;;;;;;;19.00;68.10;;;;;;5375910;26;1887;-72
2024/04/11 10:47:36;;;;;;;;;;;19.00;68.10;;;;;;5388957;26;1407;-72
2024/04/11 10:50:09;;;;;;;;;;;19.00;68.10;;;;;;5399660;26;1847;-72
2024/04/11 10:52:37;;;;;;;;;;;19.00;68.10;;;;;;5399409;26;1432;-72
2024/04/11 10:55:12;;;;;;;;;;;19.00;68.10;;;;;;5396086;26;1854;-71
2024/04/11 10:57:49;;;;;;;;;;;19.00;68.10;;;;;;5396969;26;1869;-71
2024/04/11 11:00:22;;;;;;;;;;;19.00;68.10;;;;;;5396793;26;1858;-71
2024/04/11 11:02:47;;;;;;;;;;;19.00;68.10;;;;;;5393549;26;1639;-72
2024/04/11 11:05:13;;;;;;;;;;;19.00;68.10;;;;;;5385144;26;1921;-71
2024/04/11 11:07:40;;;;;;;;;;;19.00;68.10;;;;;;5392048;26;2014;-71
2024/04/11 11:10:13;;;;;;;;;;;19.00;68.10;;;;;;5393968;26;1867;-71
2024/04/11 11:12:38;;;;;;;;;;;19.00;68.10;;;;;;5396352;26;1861;-71
2024/04/11 11:15:04;;;;;;;;;;;19.00;68.10;;;;;;5395000;26;1786;-72
2024/04/11 11:17:31;;;;;;;;;;;19.00;68.10;;;;;;5408153;26;1136;-71
2024/04/11 11:19:58;;;;;;;;;;;19.00;68.10;;;;;;5393686;26;1829;-72
2024/04/11 11:22:29;;;;;;;;;;;19.00;68.10;;;;;;5402917;26;911;-72
2024/04/11 11:25:00;;;;;;;;;;;19.00;68.10;;;;;;5404392;26;859;-71
2024/04/11 11:27:31;;;;;;;;;;;19.00;68.10;;;;;;5396987;26;1337;-72
2024/04/11 11:29:57;;;;;;;;;;;19.00;68.10;;;;;;5408158;26;1438;-72
2024/04/11 11:32:25;;;;;;;;;;;19.00;68.10;;;;;;5393211;26;1462;-71
2024/04/11 11:34:51;;;;;;;;;;;19.00;68.90;;;;;;5404067;26;927;-72
2024/04/11 11:37:21;;;;;;;;;;;19.00;68.20;;;;;;5399118;26;1246;-71
2024/04/11 11:39:50;;;;;;;;;;;19.00;68.10;;;;;;5390879;26;1829;-72
2024/04/11 11:42:26;;;;;;;;;;;19.00;68.10;;;;;;5399786;26;829;-72
2024/04/11 11:47:36;;;;;;;;;;;19.00;68.10;;;;;;5406579;26;1251;-72
2024/04/11 11:50:17;;;;;;;;;;;19.00;68.10;;;;;;5400728;26;1581;-71
2024/04/11 11:52:43;;;;;;;;;;;19.00;68.10;;;;;;5396849;26;1865;-71
2024/04/11 11:55:14;;;;;;;;;;;19.00;68.10;;;;;;5397181;26;1696;-71
2024/04/11 11:57:42;;;;;;;;;;;19.00;68.10;;;;;;5370691;26;1241;-71
2024/04/11 12:00:21;;;;;;;;;;;19.00;68.10;;;;;;5401235;26;1829;-71
2024/04/11 12:02:51;;;;;;;;;;;19.00;68.10;;;;;;5370348;26;1927;-71
2024/04/11 12:05:24;;;;;;;;;;;19.00;68.10;;;;;;5396927;26;1734;-72
2024/04/11 12:07:53;;;;;;;;;;;19.00;68.20;;;;;;5410664;26;1238;-72
2024/04/11 12:10:29;;;;;;;;;;;19.00;68.10;;;;;;5369610;26;1474;-71
2024/04/11 12:13:18;;;;;;;;;;;19.00;68.10;;;;;;5400515;26;1448;-72
2024/04/11 12:15:49;;;;;;;;;;;19.00;68.10;;;;;;5400594;26;1140;-72
2024/04/11 12:18:16;;;;;;;;;;;19.00;68.10;;;;;;5374250;26;1858;-72
2024/04/11 12:20:43;;;;;;;;;;;19.00;68.10;;;;;;5365620;26;1586;-71
2024/04/11 12:23:12;;;;;;;;;;;19.00;68.10;;;;;;5396287;26;1782;-72
2024/04/11 12:25:37;;;;;;;;;;;19.00;68.90;;;;;;5399589;26;1532;-72
2024/04/11 12:28:09;;;;;;;;;;;19.00;68.20;;;;;;5401241;26;1512;-71
2024/04/11 12:30:35;;;;;;;;;;;19.00;68.10;;;;;;5402693;26;1869;-71
2024/04/11 12:33:01;;;;;;;;;;;19.00;68.10;;;;;;5398527;26;1601;-71
2024/04/11 12:35:29;;;;;;;;;;;19.00;68.10;;;;;;5399246;26;1258;-72
2024/04/11 12:37:56;;;;;;;;;;;19.00;68.10;;;;;;5390977;26;1611;-72
2024/04/11 12:40:33;;;;;;;;;;;19.00;68.10;;;;;;5381038;26;2229;-72
2024/04/11 12:43:01;;;;;;;;;;;19.00;68.10;;;;;;5399416;26;1508;-71
2024/04/11 12:45:31;;;;;;;;;;;19.00;68.10;;;;;;5410964;26;1288;-71
2024/04/11 12:48:04;;;;;;;;;;;19.00;68.10;;;;;;5364366;26;1217;-71
2024/04/11 12:50:35;;;;;;;;;;;19.00;68.10;;;;;;5396139;26;1556;-72
2024/04/11 12:53:13;;;;;;;;;;;19.00;68.10;;;;;;5390829;26;1434;-71
2024/04/11 12:55:38;;;;;;;;;;;19.00;68.10;;;;;;5400921;26;1875;-72
2024/04/11 12:58:07;;;;;;;;;;;19.00;68.10;;;;;;5399802;26;1556;-71
2024/04/11 13:00:36;;;;;;;;;;;19.00;68.10;;;;;;5382076;26;1832;-71
2024/04/11 13:03:15;;;;;;;;;;;19.00;68.10;;;;;;5405725;26;1489;-71
2024/04/11 13:05:51;;;;;;;;;;;19.00;68.10;;;;;;5397083;26;1493;-71
2024/04/11 13:08:20;;;;;;;;;;;19.00;68.10;;;;;;5396890;26;2238;-71
2024/04/11 13:10:55;;;;;;;;;;;19.00;68.10;;;;;;5396301;26;1330;-71
2024/04/11 13:13:23;;;;;;;;;;;19.00;68.10;;;;;;5407972;26;2116;-72
2024/04/11 13:15:54;;;;;;;;;;;19.00;68.10;;;;;;5399439;26;1916;-71
2024/04/11 13:18:28;;;;;;;;;;;19.00;68.90;;;;;;5406222;26;1817;-72
2024/04/11 13:20:55;;;;;;;;;;;19.00;68.10;;;;;;5400805;26;1613;-71
2024/04/11 13:23:21;;;;;;;;;;;19.00;68.10;;;;;;5393991;26;1567;-72
2024/04/11 13:25:47;;;;;;;;;;;19.00;68.10;;;;;;5410562;26;1435;-71
2024/04/11 13:28:13;;;;;;;;;;;19.00;68.10;;;;;;5400881;26;1511;-72
2024/04/11 13:30:42;;;;;;;;;;;19.00;68.10;;;;;;5390828;26;826;-71
2024/04/11 13:33:14;;;;;;;;;;;19.00;68.10;;;;;;5403860;26;1342;-71
2024/04/11 13:35:49;;;;;;;;;;;19.00;68.10;;;;;;5400279;26;1664;-71
2024/04/11 13:38:20;;;;;;;;;;;19.00;68.10;;;;;;5398861;26;2138;-71
2024/04/11 13:43:30;;;;;;;;;;;19.00;68.10;;;;;;5401118;26;1774;-72
2024/04/11 13:46:06;;;;;;;;;;;19.00;68.90;;;;;;5406501;26;1283;-71
2024/04/11 13:48:36;;;;;;;;;;;19.00;68.10;;;;;;5381350;26;1346;-71
2024/04/11 13:51:15;;;;;;;;;;;19.00;68.10;;;;;;5388348;26;1245;-71
2024/04/11 13:53:54;;;;;;;;;;;19.00;68.20;;;;;;5382117;26;1431;-72
2024/04/11 13:56:22;;;;;;;;;;;19.00;68.10;;;;;;5403200;26;1923;-72
2024/04/11 13:58:50;;;;;;;;;;;19.00;68.10;;;;;;5395276;26;1871;-72
2024/04/11 14:01:28;;;;;;;;;;;19.00;68.10;;;;;;5410955;26;1144;-71
2024/04/11 14:03:54;;;;;;;;;;;19.00;68.10;;;;;;5402353;26;1042;-72
2024/04/11 14:08:46;;;;;;;;;;;19.00;68.20;;;;;;5395545;26;1473;-72
2024/04/11 14:11:16;;;;;;;;;;;19.00;68.20;;;;;;5397655;26;1425;-72
2024/04/11 14:13:47;;;;;;;;;;;19.00;68.10;;;;;;5396618;26;1543;-72
2024/04/11 14:16:13;;;;;;;;;;;19.00;68.10;;;;;;5402671;26;1889;-72
2024/04/11 14:18:39;;;;;;;;;;;19.00;68.20;;;;;;5395936;26;1894;-72
2024/04/11 14:23:52;;;;;;;;;;;19.00;68.20;;;;;;5391480;26;1561;-72
2024/04/11 14:26:35;;;;;;;;;;;19.00;68.10;;;;;;5391805;26;1932;-72
2024/04/11 14:29:06;;;;;;;;;;;19.00;68.20;;;;;;5392257;26;1979;-72
2024/04/11 14:31:32;;;;;;;;;;;19.00;68.20;;;;;;5398613;26;1925;-72
2024/04/11 14:36:26;;;;;;;;;;;19.00;68.20;;;;;;5395145;26;2852;-72
2024/04/11 14:38:55;;;;;;;;;;;19.00;68.20;;;;;;5391070;26;1940;-72
2024/04/11 14:41:23;;;;;;;;;;;19.00;68.20;;;;;;5391187;26;1900;-72
2024/04/11 14:43:49;;;;;;;;;;;19.00;68.10;;;;;;5404004;26;1821;-72
2024/04/11 14:46:15;;;;;;;;;;;19.00;68.20;;;;;;5399191;26;2095;-72
2024/04/11 14:48:41;;;;;;;;;;;19.00;68.20;;;;;;5396486;26;1946;-72